sensor_id;sensor_type;location;lat;lon;timestamp;temperature;humidity
45012;DHT22;63444;48.148;11.542;2023-11-19T00:01:55;6.50;99.90
45012;DHT22;63444;48.148;11.542;2023-11-19T00:04:22;6.50;99.90
45012;DHT22;63444;48.148;11.542;2023-11-19T00:06:48;6.50;99.90
45012;DHT22;63444;48.148;11.542;2023-11-19T00:09:13;6.50;99.90
45012;DHT22;63444;48.148;11.542;2023-11-19T00:11:42;6.50;99.90
45012;DHT22;63444;48.148;11.542;2023-11-19T00:14:07;6.50;99.90
45012;DHT22;63444;48.148;11.542;2023-11-19T00:16:34;6.50;99.90
45012;DHT22;63444;48.148;11.542;2023-11-19T00:19:00;6.50;99.90
45012;DHT22;63444;48.148;11.542;2023-11-19T00:21:25;6.60;99.90
45012;DHT22;63444;48.148;11.542;2023-11-19T00:23:54;6.60;99.90
45012;DHT22;63444;48.148;11.542;2023-11-19T00:26:20;6.60;99.90
45012;DHT22;63444;48.148;11.542;2023-11-19T00:28:45;6.60;99.90
45012;DHT22;63444;48.148;11.542;2023-11-19T00:31:13;6.60;99.90
45012;DHT22;63444;48.148;11.542;2023-11-19T00:33:38;6.60;99.90
45012;DHT22;63444;48.148;11.542;2023-11-19T00:36:05;6.70;99.90
45012;DHT22;63444;48.148;11.542;2023-11-19T00:38:31;6.70;99.90
45012;DHT22;63444;48.148;11.542;2023-11-19T00:40:56;6.70;99.90
45012;DHT22;63444;48.148;11.542;2023-11-19T00:43:22;6.70;99.90
45012;DHT22;63444;48.148;11.542;2023-11-19T00:45:47;6.70;99.90
45012;DHT22;63444;48.148;11.542;2023-11-19T00:48:16;6.70;99.90
45012;DHT22;63444;48.148;11.542;2023-11-19T00:50:42;6.70;99.90
45012;DHT22;63444;48.148;11.542;2023-11-19T00:53:09;6.80;99.90
45012;DHT22;63444;48.148;11.542;2023-11-19T00:55:35;6.80;99.90
45012;DHT22;63444;48.148;11.542;2023-11-19T00:58:01;6.80;99.90
45012;DHT22;63444;48.148;11.542;2023-11-19T01:00:26;6.80;99.90
45012;DHT22;63444;48.148;11.542;2023-11-19T01:02:52;6.90;99.90
45012;DHT22;63444;48.148;11.542;2023-11-19T01:05:18;6.90;99.90
45012;DHT22;63444;48.148;11.542;2023-11-19T01:07:47;6.90;99.90
45012;DHT22;63444;48.148;11.542;2023-11-19T01:10:13;7.00;99.90
45012;DHT22;63444;48.148;11.542;2023-11-19T01:12:38;7.00;99.90
45012;DHT22;63444;48.148;11.542;2023-11-19T01:15:06;7.00;99.90
45012;DHT22;63444;48.148;11.542;2023-11-19T01:17:31;7.00;99.90
45012;DHT22;63444;48.148;11.542;2023-11-19T01:19:57;7.10;99.90
45012;DHT22;63444;48.148;11.542;2023-11-19T01:22:23;7.10;99.90
45012;DHT22;63444;48.148;11.542;2023-11-19T01:24:48;7.10;99.90
45012;DHT22;63444;48.148;11.542;2023-11-19T01:27:14;7.10;99.90
45012;DHT22;63444;48.148;11.542;2023-11-19T01:29:40;7.10;99.90
45012;DHT22;63444;48.148;11.542;2023-11-19T01:32:06;7.10;99.90
45012;DHT22;63444;48.148;11.542;2023-11-19T01:34:32;7.20;99.90
45012;DHT22;63444;48.148;11.542;2023-11-19T01:36:57;7.20;99.90
45012;DHT22;63444;48.148;11.542;2023-11-19T01:39:23;7.20;99.90
45012;DHT22;63444;48.148;11.542;2023-11-19T01:41:48;7.20;99.90
45012;DHT22;63444;48.148;11.542;2023-11-19T01:44:14;7.20;99.90
45012;DHT22;63444;48.148;11.542;2023-11-19T01:46:45;7.20;99.90
45012;DHT22;63444;48.148;11.542;2023-11-19T01:49:15;7.30;99.90
45012;DHT22;63444;48.148;11.542;2023-11-19T01:51:43;7.30;99.90
45012;DHT22;63444;48.148;11.542;2023-11-19T01:54:09;7.30;99.90
45012;DHT22;63444;48.148;11.542;2023-11-19T01:56:36;7.30;99.90
45012;DHT22;63444;48.148;11.542;2023-11-19T01:59:04;7.40;99.90
45012;DHT22;63444;48.148;11.542;2023-11-19T02:01:30;7.40;99.90
45012;DHT22;63444;48.148;11.542;2023-11-19T02:03:56;7.40;99.90
45012;DHT22;63444;48.148;11.542;2023-11-19T02:06:23;7.40;99.90
45012;DHT22;63444;48.148;11.542;2023-11-19T02:08:50;7.50;99.90
45012;DHT22;63444;48.148;11.542;2023-11-19T02:11:15;7.50;99.90
45012;DHT22;63444;48.148;11.542;2023-11-19T02:13:41;7.50;99.90
45012;DHT22;63444;48.148;11.542;2023-11-19T02:16:07;7.50;99.90
45012;DHT22;63444;48.148;11.542;2023-11-19T02:18:34;7.60;99.90
45012;DHT22;63444;48.148;11.542;2023-11-19T02:21:00;7.60;99.90
45012;DHT22;63444;48.148;11.542;2023-11-19T02:23:30;7.60;99.90
45012;DHT22;63444;48.148;11.542;2023-11-19T02:26:21;7.60;99.90
45012;DHT22;63444;48.148;11.542;2023-11-19T02:28:48;7.70;99.90
45012;DHT22;63444;48.148;11.542;2023-11-19T02:31:14;7.70;99.90
45012;DHT22;63444;48.148;11.542;2023-11-19T02:33:40;7.70;99.90
45012;DHT22;63444;48.148;11.542;2023-11-19T02:36:07;7.70;99.90
45012;DHT22;63444;48.148;11.542;2023-11-19T02:38:33;7.80;99.90
45012;DHT22;63444;48.148;11.542;2023-11-19T02:41:01;7.80;99.90
45012;DHT22;63444;48.148;11.542;2023-11-19T02:43:27;7.80;99.90
45012;DHT22;63444;48.148;11.542;2023-11-19T02:45:53;7.80;99.90
45012;DHT22;63444;48.148;11.542;2023-11-19T02:48:21;7.80;99.90
45012;DHT22;63444;48.148;11.542;2023-11-19T02:50:46;7.90;99.90
45012;DHT22;63444;48.148;11.542;2023-11-19T02:53:13;7.90;99.90
45012;DHT22;63444;48.148;11.542;2023-11-19T02:55:39;7.90;99.90
45012;DHT22;63444;48.148;11.542;2023-11-19T02:58:06;8.00;99.90
45012;DHT22;63444;48.148;11.542;2023-11-19T03:00:40;8.00;99.90
45012;DHT22;63444;48.148;11.542;2023-11-19T03:03:13;8.00;99.90
45012;DHT22;63444;48.148;11.542;2023-11-19T03:05:46;8.00;99.90
45012;DHT22;63444;48.148;11.542;2023-11-19T03:08:13;8.10;99.90
45012;DHT22;63444;48.148;11.542;2023-11-19T03:10:38;8.10;99.90
45012;DHT22;63444;48.148;11.542;2023-11-19T03:13:04;8.20;99.90
45012;DHT22;63444;48.148;11.542;2023-11-19T03:15:29;8.20;99.90
45012;DHT22;63444;48.148;11.542;2023-11-19T03:17:55;8.20;99.90
45012;DHT22;63444;48.148;11.542;2023-11-19T03:20:21;8.30;99.90
45012;DHT22;63444;48.148;11.542;2023-11-19T03:22:46;8.30;99.90
45012;DHT22;63444;48.148;11.542;2023-11-19T03:25:12;8.30;99.90
45012;DHT22;63444;48.148;11.542;2023-11-19T03:27:39;8.40;99.90
45012;DHT22;63444;48.148;11.542;2023-11-19T03:30:05;8.40;99.90
45012;DHT22;63444;48.148;11.542;2023-11-19T03:32:32;8.40;99.90
45012;DHT22;63444;48.148;11.542;2023-11-19T03:34:58;8.40;99.90
45012;DHT22;63444;48.148;11.542;2023-11-19T03:37:25;8.50;99.90
45012;DHT22;63444;48.148;11.542;2023-11-19T03:39:51;8.50;99.90
45012;DHT22;63444;48.148;11.542;2023-11-19T03:42:19;8.50;99.90
45012;DHT22;63444;48.148;11.542;2023-11-19T03:44:44;8.60;99.90
45012;DHT22;63444;48.148;11.542;2023-11-19T03:47:10;8.60;99.90
45012;DHT22;63444;48.148;11.542;2023-11-19T03:49:36;8.60;99.90
45012;DHT22;63444;48.148;11.542;2023-11-19T03:52:01;8.70;99.90
45012;DHT22;63444;48.148;11.542;2023-11-19T03:54:27;8.70;99.90
45012;DHT22;63444;48.148;11.542;2023-11-19T03:56:53;8.70;99.90
45012;DHT22;63444;48.148;11.542;2023-11-19T03:59:18;8.80;99.90
45012;DHT22;63444;48.148;11.542;2023-11-19T04:01:46;8.80;99.90
45012;DHT22;63444;48.148;11.542;2023-11-19T04:04:11;8.90;99.90
45012;DHT22;63444;48.148;11.542;2023-11-19T04:06:37;8.90;99.90
45012;DHT22;63444;48.148;11.542;2023-11-19T04:09:03;9.00;99.90
45012;DHT22;63444;48.148;11.542;2023-11-19T04:11:29;9.00;99.90
45012;DHT22;63444;48.148;11.542;2023-11-19T04:13:54;9.00;99.90
45012;DHT22;63444;48.148;11.542;2023-11-19T04:16:26;9.00;99.90
45012;DHT22;63444;48.148;11.542;2023-11-19T04:18:53;9.10;99.90
45012;DHT22;63444;48.148;11.542;2023-11-19T04:21:18;9.10;99.90
45012;DHT22;63444;48.148;11.542;2023-11-19T04:23:44;9.10;99.90
45012;DHT22;63444;48.148;11.542;2023-11-19T04:26:10;9.20;99.90
45012;DHT22;63444;48.148;11.542;2023-11-19T04:28:35;9.20;99.90
45012;DHT22;63444;48.148;11.542;2023-11-19T04:31:01;9.20;99.90
45012;DHT22;63444;48.148;11.542;2023-11-19T04:33:28;9.30;99.90
45012;DHT22;63444;48.148;11.542;2023-11-19T04:35:54;9.40;99.90
45012;DHT22;63444;48.148;11.542;2023-11-19T04:38:19;9.40;99.90
45012;DHT22;63444;48.148;11.542;2023-11-19T04:40:45;9.40;99.90
45012;DHT22;63444;48.148;11.542;2023-11-19T04:43:11;9.50;99.90
45012;DHT22;63444;48.148;11.542;2023-11-19T04:45:36;9.50;99.90
45012;DHT22;63444;48.148;11.542;2023-11-19T04:48:02;9.50;99.90
45012;DHT22;63444;48.148;11.542;2023-11-19T04:50:27;9.50;99.90
45012;DHT22;63444;48.148;11.542;2023-11-19T04:52:53;9.60;99.90
45012;DHT22;63444;48.148;11.542;2023-11-19T04:55:19;9.60;99.90
45012;DHT22;63444;48.148;11.542;2023-11-19T04:57:44;9.60;99.90
45012;DHT22;63444;48.148;11.542;2023-11-19T05:00:10;9.60;99.90
45012;DHT22;63444;48.148;11.542;2023-11-19T05:02:36;9.70;99.90
45012;DHT22;63444;48.148;11.542;2023-11-19T05:05:03;9.70;99.90
45012;DHT22;63444;48.148;11.542;2023-11-19T05:07:30;9.70;99.90
45012;DHT22;63444;48.148;11.542;2023-11-19T05:09:55;9.80;99.90
45012;DHT22;63444;48.148;11.542;2023-11-19T05:12:21;9.80;99.90
45012;DHT22;63444;48.148;11.542;2023-11-19T05:14:47;9.80;99.90
45012;DHT22;63444;48.148;11.542;2023-11-19T05:17:16;9.80;99.90
45012;DHT22;63444;48.148;11.542;2023-11-19T05:19:43;9.80;99.90
45012;DHT22;63444;48.148;11.542;2023-11-19T05:22:09;9.90;99.90
45012;DHT22;63444;48.148;11.542;2023-11-19T05:24:34;9.90;99.90
45012;DHT22;63444;48.148;11.542;2023-11-19T05:27:01;10.00;99.90
45012;DHT22;63444;48.148;11.542;2023-11-19T05:29:27;9.90;99.90
45012;DHT22;63444;48.148;11.542;2023-11-19T05:31:53;9.90;99.90
45012;DHT22;63444;48.148;11.542;2023-11-19T05:34:20;9.90;99.90
45012;DHT22;63444;48.148;11.542;2023-11-19T05:36:46;10.00;99.90
45012;DHT22;63444;48.148;11.542;2023-11-19T05:39:12;9.90;99.90
45012;DHT22;63444;48.148;11.542;2023-11-19T05:41:37;9.90;99.90
45012;DHT22;63444;48.148;11.542;2023-11-19T05:44:03;10.00;99.90
45012;DHT22;63444;48.148;11.542;2023-11-19T05:46:29;10.00;99.90
45012;DHT22;63444;48.148;11.542;2023-11-19T05:48:54;10.00;99.90
45012;DHT22;63444;48.148;11.542;2023-11-19T05:51:20;9.90;99.90
45012;DHT22;63444;48.148;11.542;2023-11-19T05:53:45;10.00;99.90
45012;DHT22;63444;48.148;11.542;2023-11-19T05:56:11;10.00;99.90
45012;DHT22;63444;48.148;11.542;2023-11-19T05:58:37;10.00;99.90
45012;DHT22;63444;48.148;11.542;2023-11-19T06:01:05;10.00;99.90
45012;DHT22;63444;48.148;11.542;2023-11-19T06:03:32;10.10;99.90
45012;DHT22;63444;48.148;11.542;2023-11-19T06:05:58;10.10;99.90
45012;DHT22;63444;48.148;11.542;2023-11-19T06:08:24;10.10;99.90
45012;DHT22;63444;48.148;11.542;2023-11-19T06:10:52;10.10;99.90
45012;DHT22;63444;48.148;11.542;2023-11-19T06:13:18;10.10;99.90
45012;DHT22;63444;48.148;11.542;2023-11-19T06:15:43;10.10;99.90
45012;DHT22;63444;48.148;11.542;2023-11-19T06:18:09;10.10;99.90
45012;DHT22;63444;48.148;11.542;2023-11-19T06:20:37;10.10;99.90
45012;DHT22;63444;48.148;11.542;2023-11-19T06:23:02;10.10;99.90
45012;DHT22;63444;48.148;11.542;2023-11-19T06:25:28;10.10;99.90
45012;DHT22;63444;48.148;11.542;2023-11-19T06:27:53;10.20;99.90
45012;DHT22;63444;48.148;11.542;2023-11-19T06:30:19;10.20;99.90
45012;DHT22;63444;48.148;11.542;2023-11-19T06:32:45;10.20;99.90
45012;DHT22;63444;48.148;11.542;2023-11-19T06:35:11;10.20;99.90
45012;DHT22;63444;48.148;11.542;2023-11-19T06:37:40;10.20;99.90
45012;DHT22;63444;48.148;11.542;2023-11-19T06:40:07;10.20;99.90
45012;DHT22;63444;48.148;11.542;2023-11-19T06:42:34;10.30;99.90
45012;DHT22;63444;48.148;11.542;2023-11-19T06:45:00;10.30;99.90
45012;DHT22;63444;48.148;11.542;2023-11-19T06:47:27;10.30;99.90
45012;DHT22;63444;48.148;11.542;2023-11-19T06:49:53;10.30;99.90
45012;DHT22;63444;48.148;11.542;2023-11-19T06:52:19;10.30;99.90
45012;DHT22;63444;48.148;11.542;2023-11-19T06:54:45;10.30;99.90
45012;DHT22;63444;48.148;11.542;2023-11-19T06:57:13;10.40;99.90
45012;DHT22;63444;48.148;11.542;2023-11-19T06:59:39;10.40;99.90
45012;DHT22;63444;48.148;11.542;2023-11-19T07:02:05;10.40;99.90
45012;DHT22;63444;48.148;11.542;2023-11-19T07:04:31;10.40;99.90
45012;DHT22;63444;48.148;11.542;2023-11-19T07:06:57;10.50;99.90
45012;DHT22;63444;48.148;11.542;2023-11-19T07:09:22;10.40;99.90
45012;DHT22;63444;48.148;11.542;2023-11-19T07:11:49;10.50;99.90
45012;DHT22;63444;48.148;11.542;2023-11-19T07:14:16;10.50;99.90
45012;DHT22;63444;48.148;11.542;2023-11-19T07:16:42;10.50;99.90
45012;DHT22;63444;48.148;11.542;2023-11-19T07:19:08;10.50;99.90
45012;DHT22;63444;48.148;11.542;2023-11-19T07:21:33;10.60;99.90
45012;DHT22;63444;48.148;11.542;2023-11-19T07:23:59;10.60;99.90
45012;DHT22;63444;48.148;11.542;2023-11-19T07:26:25;10.60;99.90
45012;DHT22;63444;48.148;11.542;2023-11-19T07:28:51;10.70;99.90
45012;DHT22;63444;48.148;11.542;2023-11-19T07:31:17;10.60;99.90
45012;DHT22;63444;48.148;11.542;2023-11-19T07:33:46;10.70;99.90
45012;DHT22;63444;48.148;11.542;2023-11-19T07:36:13;10.70;99.90
45012;DHT22;63444;48.148;11.542;2023-11-19T07:38:38;10.80;99.90
45012;DHT22;63444;48.148;11.542;2023-11-19T07:41:05;10.80;99.90
45012;DHT22;63444;48.148;11.542;2023-11-19T07:43:32;10.80;99.90
45012;DHT22;63444;48.148;11.542;2023-11-19T07:45:57;10.80;99.90
45012;DHT22;63444;48.148;11.542;2023-11-19T07:48:25;10.90;99.90
45012;DHT22;63444;48.148;11.542;2023-11-19T07:50:52;10.90;99.90
45012;DHT22;63444;48.148;11.542;2023-11-19T07:53:18;10.90;99.90
45012;DHT22;63444;48.148;11.542;2023-11-19T07:55:44;10.90;99.90
45012;DHT22;63444;48.148;11.542;2023-11-19T07:58:13;11.00;99.90
45012;DHT22;63444;48.148;11.542;2023-11-19T08:00:38;11.00;99.90
45012;DHT22;63444;48.148;11.542;2023-11-19T08:03:05;11.00;99.90
45012;DHT22;63444;48.148;11.542;2023-11-19T08:05:31;11.00;99.90
45012;DHT22;63444;48.148;11.542;2023-11-19T08:07:57;11.00;99.90
45012;DHT22;63444;48.148;11.542;2023-11-19T08:10:24;11.10;99.90
45012;DHT22;63444;48.148;11.542;2023-11-19T08:12:49;11.10;99.90
45012;DHT22;63444;48.148;11.542;2023-11-19T08:15:15;11.00;99.90
45012;DHT22;63444;48.148;11.542;2023-11-19T08:17:41;11.10;99.90
45012;DHT22;63444;48.148;11.542;2023-11-19T08:20:08;11.20;99.90
45012;DHT22;63444;48.148;11.542;2023-11-19T08:22:36;11.10;99.90
45012;DHT22;63444;48.148;11.542;2023-11-19T08:25:04;11.20;99.90
45012;DHT22;63444;48.148;11.542;2023-11-19T08:27:29;11.20;99.90
45012;DHT22;63444;48.148;11.542;2023-11-19T08:29:55;11.20;99.90
45012;DHT22;63444;48.148;11.542;2023-11-19T08:32:25;11.30;99.90
45012;DHT22;63444;48.148;11.542;2023-11-19T08:34:51;11.30;99.90
45012;DHT22;63444;48.148;11.542;2023-11-19T08:37:17;11.30;99.90
45012;DHT22;63444;48.148;11.542;2023-11-19T08:39:48;11.30;99.90
45012;DHT22;63444;48.148;11.542;2023-11-19T08:42:13;11.30;99.90
45012;DHT22;63444;48.148;11.542;2023-11-19T08:44:39;11.30;99.90
45012;DHT22;63444;48.148;11.542;2023-11-19T08:47:08;11.40;99.90
45012;DHT22;63444;48.148;11.542;2023-11-19T08:49:35;11.40;99.90
45012;DHT22;63444;48.148;11.542;2023-11-19T08:52:00;11.40;99.90
45012;DHT22;63444;48.148;11.542;2023-11-19T08:54:26;11.50;99.90
45012;DHT22;63444;48.148;11.542;2023-11-19T08:56:52;11.50;99.90
45012;DHT22;63444;48.148;11.542;2023-11-19T08:59:17;11.50;99.90
45012;DHT22;63444;48.148;11.542;2023-11-19T09:01:44;11.50;99.90
45012;DHT22;63444;48.148;11.542;2023-11-19T09:04:10;11.60;99.90
45012;DHT22;63444;48.148;11.542;2023-11-19T09:06:36;11.60;99.90
45012;DHT22;63444;48.148;11.542;2023-11-19T09:09:02;11.60;99.90
45012;DHT22;63444;48.148;11.542;2023-11-19T09:11:31;11.60;99.90
45012;DHT22;63444;48.148;11.542;2023-11-19T09:13:57;11.60;99.90
45012;DHT22;63444;48.148;11.542;2023-11-19T09:16:22;11.70;99.90
45012;DHT22;63444;48.148;11.542;2023-11-19T09:18:48;11.70;99.90
45012;DHT22;63444;48.148;11.542;2023-11-19T09:21:13;11.70;99.90
45012;DHT22;63444;48.148;11.542;2023-11-19T09:23:39;11.60;99.90
45012;DHT22;63444;48.148;11.542;2023-11-19T09:26:06;11.70;99.90
45012;DHT22;63444;48.148;11.542;2023-11-19T09:28:33;11.80;99.90
45012;DHT22;63444;48.148;11.542;2023-11-19T09:30:59;11.70;99.90
45012;DHT22;63444;48.148;11.542;2023-11-19T09:33:24;11.80;99.90
45012;DHT22;63444;48.148;11.542;2023-11-19T09:35:50;11.90;99.90
45012;DHT22;63444;48.148;11.542;2023-11-19T09:38:16;11.90;99.90
45012;DHT22;63444;48.148;11.542;2023-11-19T09:40:42;11.90;99.90
45012;DHT22;63444;48.148;11.542;2023-11-19T09:43:08;11.90;99.90
45012;DHT22;63444;48.148;11.542;2023-11-19T09:48:12;12.00;99.90
45012;DHT22;63444;48.148;11.542;2023-11-19T09:50:38;12.00;99.90
45012;DHT22;63444;48.148;11.542;2023-11-19T09:53:04;12.00;99.90
45012;DHT22;63444;48.148;11.542;2023-11-19T09:55:30;12.00;99.90
45012;DHT22;63444;48.148;11.542;2023-11-19T09:57:57;12.00;99.90
45012;DHT22;63444;48.148;11.542;2023-11-19T10:00:27;12.10;99.90
45012;DHT22;63444;48.148;11.542;2023-11-19T10:02:54;12.00;99.90
45012;DHT22;63444;48.148;11.542;2023-11-19T10:05:20;12.10;99.90
45012;DHT22;63444;48.148;11.542;2023-11-19T10:07:47;12.20;99.90
45012;DHT22;63444;48.148;11.542;2023-11-19T10:10:13;12.20;99.90
45012;DHT22;63444;48.148;11.542;2023-11-19T10:12:44;12.30;99.90
45012;DHT22;63444;48.148;11.542;2023-11-19T10:15:17;12.30;99.90
45012;DHT22;63444;48.148;11.542;2023-11-19T10:17:44;12.40;99.90
45012;DHT22;63444;48.148;11.542;2023-11-19T10:20:10;12.40;99.90
45012;DHT22;63444;48.148;11.542;2023-11-19T10:22:39;12.50;99.90
45012;DHT22;63444;48.148;11.542;2023-11-19T10:25:10;12.50;99.90
45012;DHT22;63444;48.148;11.542;2023-11-19T10:27:46;12.60;99.90
45012;DHT22;63444;48.148;11.542;2023-11-19T10:30:12;12.60;99.90
45012;DHT22;63444;48.148;11.542;2023-11-19T10:32:37;12.70;99.90
45012;DHT22;63444;48.148;11.542;2023-11-19T10:35:06;12.80;99.90
45012;DHT22;63444;48.148;11.542;2023-11-19T10:37:32;12.90;99.90
45012;DHT22;63444;48.148;11.542;2023-11-19T10:40:00;13.00;99.90
45012;DHT22;63444;48.148;11.542;2023-11-19T10:42:26;13.10;99.90
45012;DHT22;63444;48.148;11.542;2023-11-19T10:44:51;13.20;99.90
45012;DHT22;63444;48.148;11.542;2023-11-19T10:47:19;13.30;99.90
45012;DHT22;63444;48.148;11.542;2023-11-19T10:49:45;13.30;99.90
45012;DHT22;63444;48.148;11.542;2023-11-19T10:52:12;13.50;99.90
45012;DHT22;63444;48.148;11.542;2023-11-19T10:54:44;13.60;99.90
45012;DHT22;63444;48.148;11.542;2023-11-19T10:57:12;13.70;99.90
45012;DHT22;63444;48.148;11.542;2023-11-19T10:59:39;13.80;99.90
45012;DHT22;63444;48.148;11.542;2023-11-19T11:02:09;13.80;99.90
45012;DHT22;63444;48.148;11.542;2023-11-19T11:04:40;13.80;99.90
45012;DHT22;63444;48.148;11.542;2023-11-19T11:07:07;13.80;99.90
45012;DHT22;63444;48.148;11.542;2023-11-19T11:09:34;13.80;99.90
45012;DHT22;63444;48.148;11.542;2023-11-19T11:12:01;13.80;99.90
45012;DHT22;63444;48.148;11.542;2023-11-19T11:14:27;13.90;99.90
45012;DHT22;63444;48.148;11.542;2023-11-19T11:16:53;13.90;99.90
45012;DHT22;63444;48.148;11.542;2023-11-19T11:19:20;14.00;99.90
45012;DHT22;63444;48.148;11.542;2023-11-19T11:21:50;14.00;99.90
45012;DHT22;63444;48.148;11.542;2023-11-19T11:30:10;14.00;99.90
45012;DHT22;63444;48.148;11.542;2023-11-19T11:32:43;14.10;99.90
45012;DHT22;63444;48.148;11.542;2023-11-19T11:37:53;14.10;99.90
45012;DHT22;63444;48.148;11.542;2023-11-19T11:40:21;14.10;99.90
45012;DHT22;63444;48.148;11.542;2023-11-19T11:42:50;14.20;99.90
45012;DHT22;63444;48.148;11.542;2023-11-19T11:45:17;14.30;99.90
45012;DHT22;63444;48.148;11.542;2023-11-19T11:50:13;14.40;99.90
45012;DHT22;63444;48.148;11.542;2023-11-19T11:55:37;14.50;99.90
45012;DHT22;63444;48.148;11.542;2023-11-19T11:58:03;14.50;99.90
45012;DHT22;63444;48.148;11.542;2023-11-19T12:00:31;14.60;99.90
45012;DHT22;63444;48.148;11.542;2023-11-19T12:02:59;14.60;99.90
45012;DHT22;63444;48.148;11.542;2023-11-19T12:05:25;14.70;99.90
45012;DHT22;63444;48.148;11.542;2023-11-19T12:08:01;14.70;99.90
45012;DHT22;63444;48.148;11.542;2023-11-19T12:10:32;14.70;99.90
45012;DHT22;63444;48.148;11.542;2023-11-19T12:13:05;14.70;99.90
45012;DHT22;63444;48.148;11.542;2023-11-19T12:15:32;14.70;99.90
45012;DHT22;63444;48.148;11.542;2023-11-19T12:17:58;14.80;99.90
45012;DHT22;63444;48.148;11.542;2023-11-19T12:20:25;14.80;99.90
45012;DHT22;63444;48.148;11.542;2023-11-19T12:22:52;14.80;99.90
45012;DHT22;63444;48.148;11.542;2023-11-19T12:25:18;14.80;99.90
45012;DHT22;63444;48.148;11.542;2023-11-19T12:27:47;14.90;99.90
45012;DHT22;63444;48.148;11.542;2023-11-19T12:30:26;15.00;99.90
45012;DHT22;63444;48.148;11.542;2023-11-19T12:32:52;15.00;99.90
45012;DHT22;63444;48.148;11.542;2023-11-19T12:35:21;15.00;99.90
45012;DHT22;63444;48.148;11.542;2023-11-19T12:37:48;15.00;99.90
45012;DHT22;63444;48.148;11.542;2023-11-19T12:40:19;14.90;99.90
45012;DHT22;63444;48.148;11.542;2023-11-19T12:42:46;14.90;99.90
45012;DHT22;63444;48.148;11.542;2023-11-19T12:45:12;14.90;99.90
45012;DHT22;63444;48.148;11.542;2023-11-19T12:47:39;14.80;99.90
45012;DHT22;63444;48.148;11.542;2023-11-19T12:50:09;14.80;99.90
45012;DHT22;63444;48.148;11.542;2023-11-19T12:52:36;14.80;99.90
45012;DHT22;63444;48.148;11.542;2023-11-19T12:55:03;14.80;99.90
45012;DHT22;63444;48.148;11.542;2023-11-19T12:57:41;14.90;99.90
45012;DHT22;63444;48.148;11.542;2023-11-19T13:00:18;14.90;99.90
45012;DHT22;63444;48.148;11.542;2023-11-19T13:02:51;14.90;99.90
45012;DHT22;63444;48.148;11.542;2023-11-19T13:05:30;14.90;99.90
45012;DHT22;63444;48.148;11.542;2023-11-19T13:10:28;14.90;99.90
45012;DHT22;63444;48.148;11.542;2023-11-19T13:13:02;14.90;99.90
45012;DHT22;63444;48.148;11.542;2023-11-19T13:15:28;14.90;99.90
45012;DHT22;63444;48.148;11.542;2023-11-19T13:17:54;14.80;99.90
45012;DHT22;63444;48.148;11.542;2023-11-19T13:20:19;14.80;99.90
45012;DHT22;63444;48.148;11.542;2023-11-19T13:23:00;14.80;99.90
45012;DHT22;63444;48.148;11.542;2023-11-19T13:25:27;14.80;99.90
45012;DHT22;63444;48.148;11.542;2023-11-19T13:27:53;14.80;99.90
45012;DHT22;63444;48.148;11.542;2023-11-19T13:30:20;14.80;99.90
45012;DHT22;63444;48.148;11.542;2023-11-19T13:32:45;14.80;99.90
45012;DHT22;63444;48.148;11.542;2023-11-19T13:35:12;14.70;99.90
45012;DHT22;63444;48.148;11.542;2023-11-19T13:37:38;14.60;99.90
45012;DHT22;63444;48.148;11.542;2023-11-19T13:40:05;14.60;99.90
45012;DHT22;63444;48.148;11.542;2023-11-19T13:42:31;14.60;99.90
45012;DHT22;63444;48.148;11.542;2023-11-19T13:44:57;14.60;99.90
45012;DHT22;63444;48.148;11.542;2023-11-19T13:47:22;14.50;99.90
45012;DHT22;63444;48.148;11.542;2023-11-19T13:49:49;14.50;99.90
45012;DHT22;63444;48.148;11.542;2023-11-19T13:52:15;14.40;99.90
45012;DHT22;63444;48.148;11.542;2023-11-19T13:54:40;14.40;99.90
45012;DHT22;63444;48.148;11.542;2023-11-19T13:57:06;14.40;99.90
45012;DHT22;63444;48.148;11.542;2023-11-19T13:59:32;14.40;99.90
45012;DHT22;63444;48.148;11.542;2023-11-19T14:02:00;14.30;99.90
45012;DHT22;63444;48.148;11.542;2023-11-19T14:04:26;14.40;99.90
45012;DHT22;63444;48.148;11.542;2023-11-19T14:06:51;14.30;99.90
45012;DHT22;63444;48.148;11.542;2023-11-19T14:09:17;14.40;99.90
45012;DHT22;63444;48.148;11.542;2023-11-19T14:11:44;14.40;99.90
45012;DHT22;63444;48.148;11.542;2023-11-19T14:14:09;14.30;99.90
45012;DHT22;63444;48.148;11.542;2023-11-19T14:16:35;14.40;99.90
45012;DHT22;63444;48.148;11.542;2023-11-19T14:19:01;14.30;99.90
45012;DHT22;63444;48.148;11.542;2023-11-19T14:21:26;14.40;99.90
45012;DHT22;63444;48.148;11.542;2023-11-19T14:23:52;14.30;99.90
45012;DHT22;63444;48.148;11.542;2023-11-19T14:26:18;14.30;99.90
45012;DHT22;63444;48.148;11.542;2023-11-19T14:28:44;14.20;99.90
45012;DHT22;63444;48.148;11.542;2023-11-19T14:31:10;14.20;99.90
45012;DHT22;63444;48.148;11.542;2023-11-19T14:33:35;14.20;99.90
45012;DHT22;63444;48.148;11.542;2023-11-19T14:36:03;14.20;99.90
45012;DHT22;63444;48.148;11.542;2023-11-19T14:38:30;14.10;99.90
45012;DHT22;63444;48.148;11.542;2023-11-19T14:40:56;14.20;99.90
45012;DHT22;63444;48.148;11.542;2023-11-19T14:43:21;14.10;99.90
45012;DHT22;63444;48.148;11.542;2023-11-19T14:45:47;14.20;99.90
45012;DHT22;63444;48.148;11.542;2023-11-19T14:48:12;14.10;99.90
45012;DHT22;63444;48.148;11.542;2023-11-19T14:50:38;14.10;99.90
45012;DHT22;63444;48.148;11.542;2023-11-19T14:53:03;14.10;99.90
45012;DHT22;63444;48.148;11.542;2023-11-19T14:55:29;14.10;99.90
45012;DHT22;63444;48.148;11.542;2023-11-19T14:57:55;14.10;99.90
45012;DHT22;63444;48.148;11.542;2023-11-19T15:00:22;14.10;99.90
45012;DHT22;63444;48.148;11.542;2023-11-19T15:02:47;14.00;99.90
45012;DHT22;63444;48.148;11.542;2023-11-19T15:05:13;14.00;99.90
45012;DHT22;63444;48.148;11.542;2023-11-19T15:07:39;14.00;99.90
45012;DHT22;63444;48.148;11.542;2023-11-19T15:10:06;14.00;99.90
45012;DHT22;63444;48.148;11.542;2023-11-19T15:12:39;14.00;99.90
45012;DHT22;63444;48.148;11.542;2023-11-19T15:15:08;14.00;99.90
45012;DHT22;63444;48.148;11.542;2023-11-19T15:17:35;13.90;99.90
45012;DHT22;63444;48.148;11.542;2023-11-19T15:20:03;14.00;99.90
45012;DHT22;63444;48.148;11.542;2023-11-19T15:22:28;13.90;99.90
45012;DHT22;63444;48.148;11.542;2023-11-19T15:24:54;13.90;99.90
45012;DHT22;63444;48.148;11.542;2023-11-19T15:27:20;13.90;99.90
45012;DHT22;63444;48.148;11.542;2023-11-19T15:29:46;13.90;99.90
45012;DHT22;63444;48.148;11.542;2023-11-19T15:32:11;13.80;99.90
45012;DHT22;63444;48.148;11.542;2023-11-19T15:34:37;13.80;99.90
45012;DHT22;63444;48.148;11.542;2023-11-19T15:37:03;13.70;99.90
45012;DHT22;63444;48.148;11.542;2023-11-19T15:39:29;13.70;99.90